Kezdőlap
METAR-TAF:

METAR-TAF

Repülőterek :

Rusk_County_Airport

Ladysmith, Wisconsin, Amerikai Egyesült Államok

földrajzi szélesség: 45-29-48N, földrajzi hosszúság: 091-00-01W, magasság: 377 m

Jelenlegi meteorológiai megfigyelések

A jelentés 12 perccel ezelõtt készült, 19:15 UTC
Szélcsend
Hőmérséklet 22°C
Páratartalom 53%
Légköri nyomás 1024 hPa
Szórványos felhőzet 4300 lábon
Szakadozott felhőzet 5000 lábon

METAR: KRCX 241915Z AUTO 00000KT SCT043 BKN050 22/12 A3024 RMK AO2 T02180122 PWINO

Idő: 14:27 (19:27 UTC)


TAF: hiányzik

Meteorológiai megfigyelések és előrejelzések több, mint 4000 repülőtéren (METAR és TAF jelentéseket).

A térképen piros és sárga pontok jelzik az elérhető meteorológiai állomásokat.

Mozgassa az egeret a pont fölött, hogy megjelenjen az állomás neve.

Azután kattintson az időjárási megfigyelések és előrejelzések megtekintéséhez.

A térkép megváltoztatása: kattintson a fekete keresztel jelölt zöld gombra ráközelítéshez, a vonallal jelölt zöld gombra távolításhoz, vagy a zöld nyilakra a szomszédos térképek eléréséhez.


METAR-TAF: